Time;durP1;ratioP1;P1;durP2;ratioP2;P2;SDS_P1;SDS_P2;PMS_P1;PMS_P2;Temp;Humidity;BMP_temperature;BMP_pressure;BME280_temperature;BME280_humidity;BME280_pressure;Samples;Min_cycle;Max_cycle;Signal;HPM_P1;HPM_P2
2022/08/06 00:02:12;;;;;;;2.57;1.83;;;14.10;99.90;;;;;;5091901;28;20284;-51
2022/08/06 00:04:40;;;;;;;2.20;1.77;;;14.10;99.90;;;;;;5099733;28;20208;-51
2022/08/06 00:07:09;;;;;;;1.70;1.60;;;14.00;99.90;;;;;;5098791;28;20222;-52
2022/08/06 00:09:49;;;;;;;2.63;1.60;;;14.00;99.90;;;;;;5089177;28;20250;-52
2022/08/06 00:12:28;;;;;;;2.90;1.97;;;13.90;99.90;;;;;;5089155;28;20285;-52
2022/08/06 00:14:57;;;;;;;4.13;1.70;;;13.90;99.90;;;;;;5089930;28;20208;-52
2022/08/06 00:17:27;;;;;;;4.10;1.83;;;13.80;99.90;;;;;;5088474;28;20223;-53
2022/08/06 00:20:01;;;;;;;4.03;1.60;;;13.70;99.90;;;;;;5081280;28;20234;-52
2022/08/06 00:22:30;;;;;;;2.13;1.80;;;13.70;99.90;;;;;;5083591;28;20197;-52
2022/08/06 00:25:00;;;;;;;3.43;1.90;;;13.70;99.90;;;;;;5089482;28;20231;-52
2022/08/06 00:27:28;;;;;;;3.20;1.80;;;13.70;99.90;;;;;;5089996;28;20211;-52
2022/08/06 00:30:07;;;;;;;3.23;1.80;;;13.60;99.90;;;;;;5077235;28;20701;-52
2022/08/06 00:32:47;;;;;;;3.57;1.60;;;13.50;99.90;;;;;;5088863;28;20219;-52
2022/08/06 00:35:20;;;;;;;2.23;1.73;;;13.50;99.90;;;;;;5089619;28;20199;-52
2022/08/06 00:37:55;;;;;;;1.97;1.80;;;13.50;99.90;;;;;;5088900;28;20207;-52
2022/08/06 00:40:27;;;;;;;3.37;1.80;;;13.40;99.90;;;;;;5089290;28;20234;-53
2022/08/06 00:42:57;;;;;;;2.60;1.90;;;13.40;99.90;;;;;;5090711;28;20638;-52
2022/08/06 00:45:28;;;;;;;3.20;2.10;;;13.50;99.90;;;;;;5101357;28;20208;-52
2022/08/06 00:48:00;;;;;;;2.37;2.00;;;13.40;99.90;;;;;;5089544;28;20297;-52
2022/08/06 00:50:34;;;;;;;4.47;2.37;;;13.40;99.90;;;;;;5089323;28;20232;-52
2022/08/06 00:53:05;;;;;;;3.17;1.70;;;13.30;99.90;;;;;;5103323;28;20868;-52
2022/08/06 00:55:36;;;;;;;3.67;1.90;;;13.30;99.90;;;;;;5089010;28;20211;-52
2022/08/06 00:58:24;;;;;;;3.03;1.63;;;13.30;99.90;;;;;;5089321;28;20303;-52
2022/08/06 01:00:53;;;;;;;3.47;2.00;;;13.30;99.90;;;;;;5088822;28;20205;-52
2022/08/06 01:03:23;;;;;;;3.90;1.70;;;13.30;99.90;;;;;;5089292;28;20265;-52
2022/08/06 01:06:09;;;;;;;3.83;2.00;;;13.30;99.90;;;;;;5089222;28;20205;-52
2022/08/06 01:08:57;;;;;;;2.77;1.93;;;13.30;99.90;;;;;;5089049;28;20311;-52
2022/08/06 01:11:25;;;;;;;3.60;1.83;;;13.30;99.90;;;;;;5088939;28;20632;-52
2022/08/06 01:13:54;;;;;;;3.33;1.87;;;13.20;99.90;;;;;;5088907;28;20521;-52
2022/08/06 01:16:40;;;;;;;9.27;1.90;;;13.10;99.90;;;;;;5089297;28;20231;-52
2022/08/06 01:19:41;;;;;;;3.53;1.90;;;13.00;99.90;;;;;;5086987;28;20219;-52
2022/08/06 01:22:50;;;;;;;3.63;1.90;;;13.00;99.90;;;;;;5083207;28;20291;-52
2022/08/06 01:25:57;;;;;;;7.30;2.00;;;13.00;99.90;;;;;;5098945;28;20200;-52
2022/08/06 01:28:32;;;;;;;3.07;1.80;;;13.00;99.90;;;;;;5082161;28;20207;-52
2022/08/06 01:31:08;;;;;;;3.07;1.90;;;12.90;99.90;;;;;;5113132;28;20268;-51
2022/08/06 01:33:41;;;;;;;2.83;2.00;;;12.90;99.90;;;;;;5106545;28;20215;-52
2022/08/06 01:36:20;;;;;;;2.60;2.00;;;12.90;99.90;;;;;;5112762;28;20207;-52
2022/08/06 01:38:59;;;;;;;3.93;1.97;;;12.90;99.90;;;;;;5111532;28;20870;-52
2022/08/06 01:41:41;;;;;;;3.93;2.03;;;12.80;99.90;;;;;;5112364;28;20584;-52
2022/08/06 01:44:31;;;;;;;1.70;1.60;;;12.70;99.90;;;;;;5112608;28;20208;-52
2022/08/06 01:47:04;;;;;;;4.73;1.90;;;12.70;99.90;;;;;;5109550;28;20205;-52
2022/08/06 01:49:46;;;;;;;3.57;1.90;;;12.70;99.90;;;;;;5103256;28;20730;-52
2022/08/06 01:52:34;;;;;;;3.37;2.10;;;12.70;99.90;;;;;;5096264;28;20212;-52
2022/08/06 01:55:07;;;;;;;1.93;1.63;;;12.60;99.90;;;;;;5091690;28;20336;-52
2022/08/06 01:57:40;;;;;;;3.93;1.90;;;12.50;99.90;;;;;;5091507;28;20227;-52
2022/08/06 02:00:32;;;;;;;4.57;2.13;;;12.50;99.90;;;;;;5077691;28;20676;-52
2022/08/06 02:03:06;;;;;;;3.17;1.87;;;12.40;99.90;;;;;;5091326;28;20287;-52
2022/08/06 02:05:35;;;;;;;3.40;2.00;;;12.40;99.90;;;;;;5092052;28;20208;-52
2022/08/06 02:08:14;;;;;;;4.27;2.10;;;12.40;99.90;;;;;;5077673;28;20299;-51
2022/08/06 02:11:04;;;;;;;5.17;2.13;;;12.30;99.90;;;;;;5080557;28;20962;-52
2022/08/06 02:13:55;;;;;;;2.73;1.80;;;12.20;99.90;;;;;;5091110;28;20216;-52
2022/08/06 02:16:26;;;;;;;6.07;2.30;;;12.10;99.90;;;;;;5091621;28;20681;-51
2022/08/06 02:18:57;;;;;;;3.80;2.10;;;12.10;99.90;;;;;;5091356;28;20224;-52
2022/08/06 02:21:27;;;;;;;1.77;1.67;;;12.10;99.90;;;;;;5091467;28;20212;-52
2022/08/06 02:24:01;;;;;;;5.03;2.30;;;12.10;99.90;;;;;;5087904;28;20284;-52
2022/08/06 02:26:30;;;;;;;2.13;1.90;;;12.00;99.90;;;;;;5080882;28;20216;-52
2022/08/06 02:29:02;;;;;;;5.33;2.47;;;12.00;99.90;;;;;;5091204;28;20235;-52
2022/08/06 02:31:32;;;;;;;3.00;2.10;;;11.90;99.90;;;;;;5090892;28;20730;-52
2022/08/06 02:34:19;;;;;;;8.33;2.50;;;11.90;99.90;;;;;;5091290;28;20220;-52
2022/08/06 02:36:59;;;;;;;2.90;2.60;;;11.80;99.90;;;;;;5090545;28;20212;-52
2022/08/06 02:39:33;;;;;;;5.17;2.37;;;11.80;99.90;;;;;;5090256;28;20223;-53
2022/08/06 02:42:22;;;;;;;3.80;2.00;;;11.80;99.90;;;;;;5090895;28;20205;-52
2022/08/06 02:45:00;;;;;;;4.83;2.30;;;11.70;99.90;;;;;;5091264;28;20204;-52
2022/08/06 02:47:37;;;;;;;4.10;2.40;;;11.70;99.90;;;;;;5090304;28;20254;-52
2022/08/06 02:50:32;;;;;;;4.43;2.47;;;11.70;99.90;;;;;;5091091;28;20331;-53
2022/08/06 02:53:06;;;;;;;2.60;2.40;;;11.60;99.90;;;;;;5090175;28;20214;-52
2022/08/06 02:55:54;;;;;;;4.43;2.47;;;11.60;99.90;;;;;;5090813;28;20212;-52
2022/08/06 02:58:29;;;;;;;3.27;2.20;;;11.50;99.90;;;;;;5085194;28;20304;-52
2022/08/06 03:01:10;;;;;;;4.27;2.33;;;11.50;99.90;;;;;;5084375;28;20506;-52
2022/08/06 03:03:43;;;;;;;4.70;2.30;;;11.60;99.90;;;;;;5090417;28;20219;-52
2022/08/06 03:06:28;;;;;;;3.47;2.30;;;11.50;99.90;;;;;;5091036;28;20333;-52
2022/08/06 03:08:58;;;;;;;4.50;2.83;;;11.50;99.90;;;;;;5090291;28;20331;-54
2022/08/06 03:11:29;;;;;;;3.77;2.60;;;11.40;99.90;;;;;;5090981;28;20227;-52
2022/08/06 03:14:01;;;;;;;2.73;2.37;;;11.50;99.90;;;;;;5090772;28;20224;-52
2022/08/06 03:16:42;;;;;;;6.73;2.50;;;11.40;99.90;;;;;;5090422;28;20254;-52
2022/08/06 03:19:20;;;;;;;6.17;2.67;;;11.40;99.90;;;;;;5090108;28;20347;-52
2022/08/06 03:22:10;;;;;;;3.97;2.30;;;11.40;99.90;;;;;;5090451;28;20344;-52
2022/08/06 03:24:59;;;;;;;4.67;2.60;;;11.30;99.90;;;;;;5089701;28;20204;-52
2022/08/06 03:27:31;;;;;;;5.17;2.40;;;11.30;99.90;;;;;;5076950;28;20261;-52
2022/08/06 03:30:12;;;;;;;4.67;2.60;;;11.20;99.90;;;;;;5089966;28;20250;-52
2022/08/06 03:33:01;;;;;;;2.90;2.60;;;11.30;99.90;;;;;;5092156;28;20200;-52
2022/08/06 03:35:52;;;;;;;4.97;2.60;;;11.30;99.90;;;;;;5098714;28;20234;-51
2022/08/06 03:38:22;;;;;;;3.63;2.50;;;11.30;99.90;;;;;;5097899;28;20251;-52
2022/08/06 03:40:58;;;;;;;6.30;2.50;;;11.30;99.90;;;;;;5089994;28;20226;-52
2022/08/06 03:43:28;;;;;;;4.97;2.00;;;11.30;99.90;;;;;;5089691;28;20294;-52
2022/08/06 03:46:25;;;;;;;2.87;2.37;;;11.40;99.90;;;;;;5089590;28;20636;-52
2022/08/06 03:48:56;;;;;;;4.50;2.30;;;11.40;99.90;;;;;;5089879;28;20228;-52
2022/08/06 03:51:29;;;;;;;6.40;2.50;;;11.30;99.90;;;;;;5089574;28;20266;-52
2022/08/06 03:54:22;;;;;;;4.87;2.60;;;11.20;99.90;;;;;;5089182;28;20319;-52
2022/08/06 03:57:02;;;;;;;2.40;2.20;;;11.10;99.90;;;;;;5090082;28;20234;-52
2022/08/06 03:59:40;;;;;;;3.70;2.27;;;11.10;99.90;;;;;;5075007;28;20244;-52
2022/08/06 04:02:27;;;;;;;4.57;2.50;;;11.00;99.90;;;;;;5089115;28;20201;-52
2022/08/06 04:05:16;;;;;;;4.33;2.63;;;11.00;99.90;;;;;;5089657;28;20729;-52
2022/08/06 04:07:51;;;;;;;5.10;2.60;;;11.00;99.90;;;;;;5089661;28;20208;-52
2022/08/06 04:10:25;;;;;;;3.57;2.47;;;11.00;99.90;;;;;;5089658;28;20240;-52
2022/08/06 04:13:05;;;;;;;5.13;2.70;;;11.00;99.90;;;;;;5089865;28;20295;-52
2022/08/06 04:15:55;;;;;;;4.73;3.17;;;11.00;99.90;;;;;;5078090;28;20270;-52
2022/08/06 04:18:26;;;;;;;2.50;2.30;;;11.00;99.90;;;;;;5089533;28;20214;-52
2022/08/06 04:20:58;;;;;;;2.80;2.33;;;11.00;99.90;;;;;;5089822;28;20232;-52
2022/08/06 04:23:48;;;;;;;2.83;2.53;;;11.10;99.90;;;;;;5089527;28;20294;-52
2022/08/06 04:26:19;;;;;;;3.50;2.63;;;11.00;99.90;;;;;;5089747;28;20207;-52
2022/08/06 04:28:49;;;;;;;2.60;2.40;;;11.00;99.90;;;;;;5089574;28;20281;-52
2022/08/06 04:31:27;;;;;;;5.20;2.60;;;11.00;99.90;;;;;;5089636;28;20196;-52
2022/08/06 04:34:19;;;;;;;5.17;2.60;;;11.20;99.90;;;;;;5088470;28;20234;-52
2022/08/06 04:36:55;;;;;;;3.10;2.40;;;11.20;99.90;;;;;;5089134;28;20285;-52
2022/08/06 04:39:25;;;;;;;6.30;2.50;;;11.40;99.90;;;;;;5088846;28;20288;-52
2022/08/06 04:42:13;;;;;;;3.47;2.50;;;11.40;99.90;;;;;;5089117;28;20299;-52
2022/08/06 04:44:44;;;;;;;4.27;2.80;;;11.50;99.90;;;;;;5089376;28;20201;-52
2022/08/06 04:47:13;;;;;;;3.10;2.10;;;12.10;99.90;;;;;;5088887;28;20323;-52
2022/08/06 04:49:47;;;;;;;2.33;2.13;;;12.70;99.90;;;;;;5089392;28;20310;-52
2022/08/06 04:52:30;;;;;;;3.80;2.27;;;13.10;99.90;;;;;;5088716;28;20736;-52
2022/08/06 04:55:15;;;;;;;4.10;2.30;;;13.80;99.90;;;;;;5089414;28;20284;-52
2022/08/06 04:58:00;;;;;;;3.17;1.90;;;14.70;99.90;;;;;;5087047;28;20212;-53
2022/08/06 05:00:37;;;;;;;2.27;1.87;;;15.20;99.90;;;;;;5078290;28;20311;-53
2022/08/06 05:03:25;;;;;;;2.35;1.92;;;15.80;99.90;;;;;;5091675;28;20314;-52
2022/08/06 05:06:20;;;;;;;3.38;2.03;;;16.30;99.90;;;;;;5093426;28;20254;-52
2022/08/06 05:08:57;;;;;;;5.22;1.80;;;16.90;99.90;;;;;;5092672;28;20227;-52
2022/08/06 05:11:31;;;;;;;2.53;1.73;;;17.50;99.90;;;;;;5092630;28;20757;-52
2022/08/06 05:14:05;;;;;;;3.65;1.90;;;17.80;99.90;;;;;;5092931;28;20235;-52
2022/08/06 05:16:39;;;;;;;3.53;1.90;;;18.10;99.90;;;;;;5092153;28;20290;-52
2022/08/06 05:19:26;;;;;;;2.45;1.70;;;18.40;99.90;;;;;;5101014;28;20229;-53
2022/08/06 05:21:56;;;;;;;5.70;2.10;;;19.00;99.90;;;;;;5113351;28;20234;-53
2022/08/06 05:24:40;;;;;;;4.43;2.00;;;19.20;99.90;;;;;;5112898;28;20601;-53
2022/08/06 05:27:30;;;;;;;4.32;1.95;;;19.80;99.90;;;;;;5110559;28;20345;-52
2022/08/06 05:30:18;;;;;;;2.65;1.90;;;20.10;99.90;;;;;;5104831;28;20315;-53
2022/08/06 05:32:48;;;;;;;4.78;1.95;;;20.30;99.90;;;;;;5112444;28;20214;-53
2022/08/06 05:35:23;;;;;;;2.88;2.10;;;20.70;99.90;;;;;;5113394;28;20219;-53
2022/08/06 05:38:10;;;;;;;3.20;1.95;;;20.80;99.90;;;;;;5112164;28;20203;-53
2022/08/06 05:40:39;;;;;;;2.53;2.10;;;20.90;99.90;;;;;;5113259;28;20780;-53
2022/08/06 05:43:26;;;;;;;5.22;2.20;;;21.10;99.90;;;;;;5109530;28;20204;-54
2022/08/06 05:46:16;;;;;;;3.28;1.67;;;21.30;99.90;;;;;;5089419;28;20295;-53
2022/08/06 05:48:55;;;;;;;2.72;2.13;;;21.40;99.90;;;;;;5091595;28;20292;-52
2022/08/06 05:51:32;;;;;;;3.15;2.20;;;21.10;99.90;;;;;;5092388;28;20206;-53
2022/08/06 05:54:18;;;;;;;2.60;2.00;;;20.90;99.90;;;;;;5092629;28;20242;-53
2022/08/06 05:56:49;;;;;;;4.07;2.08;;;20.60;99.90;;;;;;5092867;28;20215;-53
2022/08/06 05:59:26;;;;;;;2.80;2.08;;;20.30;99.90;;;;;;5078465;28;20305;-50
2022/08/06 06:02:07;;;;;;;2.85;2.05;;;20.30;99.90;;;;;;5084749;28;20561;-51
2022/08/06 06:04:37;;;;;;;2.63;1.95;;;20.10;99.90;;;;;;5091321;28;20740;-50
2022/08/06 06:07:13;;;;;;;3.65;1.88;;;19.80;99.90;;;;;;5091767;28;20697;-50
2022/08/06 06:10:04;;;;;;;3.22;2.28;;;19.40;99.90;;;;;;5091225;28;20252;-50
2022/08/06 06:12:32;;;;;;;2.30;1.98;;;19.50;99.90;;;;;;5092079;28;20204;-50
2022/08/06 06:15:05;;;;;;;3.38;2.13;;;20.30;99.90;;;;;;5090977;28;20220;-50
2022/08/06 06:18:12;;;;;;;3.55;1.92;;;20.70;99.90;;;;;;5091581;28;20247;-50
2022/08/06 06:21:10;;;;;;;4.40;1.73;;;21.00;99.90;;;;;;5080563;28;20590;-51
2022/08/06 06:23:50;;;;;;;3.90;1.92;;;21.50;99.90;;;;;;5091162;28;20206;-52
2022/08/06 06:26:28;;;;;;;5.57;1.90;;;21.70;99.90;;;;;;5091757;28;20200;-53
2022/08/06 06:29:08;;;;;;;1.63;1.38;;;21.50;99.90;;;;;;5091495;28;20319;-53
2022/08/06 06:31:49;;;;;;;4.05;1.70;;;21.70;99.90;;;;;;5091071;28;20212;-52
2022/08/06 06:34:47;;;;;;;4.35;1.50;;;22.30;99.90;;;;;;5091358;28;20232;-53
2022/08/06 06:37:26;;;;;;;3.70;1.60;;;22.60;99.90;;;;;;5091299;28;20633;-52
2022/08/06 06:40:18;;;;;;;3.53;1.52;;;22.60;99.90;;;;;;5090783;28;20316;-52
2022/08/06 06:42:54;;;;;;;3.13;1.48;;;21.50;99.90;;;;;;5090604;28;20261;-52
2022/08/06 06:45:33;;;;;;;4.93;1.70;;;21.10;99.90;;;;;;5091430;28;20204;-53
2022/08/06 06:48:27;;;;;;;3.17;1.20;;;21.10;99.90;;;;;;5091088;28;20307;-53
2022/08/06 06:51:02;;;;;;;2.15;1.13;;;21.20;99.90;;;;;;5090724;28;20630;-53
2022/08/06 06:53:40;;;;;;;2.50;1.40;;;21.60;99.90;;;;;;5083116;28;20264;-53
2022/08/06 06:56:40;;;;;;;1.98;1.17;;;20.80;99.90;;;;;;5095050;28;20237;-52
2022/08/06 06:59:20;;;;;;;2.63;1.40;;;20.60;99.90;;;;;;5082652;28;20237;-53
2022/08/06 07:01:54;;;;;;;2.72;1.50;;;20.70;99.90;;;;;;5090381;28;20282;-53
2022/08/06 07:04:27;;;;;;;2.72;1.33;;;20.60;99.90;;;;;;5088009;28;20274;-52
2022/08/06 07:06:59;;;;;;;3.83;1.35;;;20.10;99.90;;;;;;5084091;28;20755;-53
2022/08/06 07:09:37;;;;;;;3.38;1.25;;;19.80;99.90;;;;;;5088536;28;20284;-53
2022/08/06 07:12:10;;;;;;;2.58;1.30;;;19.40;99.90;;;;;;5089975;28;20200;-53
2022/08/06 07:14:48;;;;;;;2.28;1.20;;;19.20;99.90;;;;;;5084042;28;20677;-53
2022/08/06 07:17:29;;;;;;;5.90;1.40;;;18.90;99.90;;;;;;5090781;28;20269;-52
2022/08/06 07:20:24;;;;;;;3.63;1.55;;;18.80;99.90;;;;;;5089899;28;20224;-53
2022/08/06 07:22:58;;;;;;;2.53;1.48;;;18.70;99.90;;;;;;5080649;28;20582;-53
2022/08/06 07:25:48;;;;;;;4.50;1.42;;;18.60;99.90;;;;;;5081369;28;20630;-53
2022/08/06 07:28:25;;;;;;;3.72;1.50;;;18.60;99.90;;;;;;5089647;28;20581;-53
2022/08/06 07:30:56;;;;;;;1.60;1.30;;;18.90;99.90;;;;;;5090210;28;20207;-53
2022/08/06 07:33:32;;;;;;;1.75;1.33;;;18.90;99.90;;;;;;5089819;28;20256;-53
2022/08/06 07:36:24;;;;;;;2.78;1.33;;;20.10;99.90;;;;;;5089948;28;20319;-53
2022/08/06 07:38:58;;;;;;;2.60;1.48;;;20.60;99.90;;;;;;5088715;28;20705;-53
2022/08/06 07:41:27;;;;;;;3.72;1.35;;;21.30;99.90;;;;;;5089809;28;20824;-54
2022/08/06 07:44:15;;;;;;;3.60;1.30;;;21.70;99.90;;;;;;5088277;28;20242;-53
2022/08/06 07:46:54;;;;;;;4.90;1.10;;;22.00;99.90;;;;;;5089332;28;20201;-53
2022/08/06 07:49:30;;;;;;;1.15;0.98;;;22.60;99.90;;;;;;5088896;28;20231;-53
2022/08/06 07:52:20;;;;;;;3.08;1.20;;;22.80;99.90;;;;;;5090213;28;20291;-50
2022/08/06 07:54:55;;;;;;;6.20;1.35;;;23.00;99.90;;;;;;5089444;28;20224;-50
2022/08/06 07:57:25;;;;;;;1.98;1.00;;;22.80;99.90;;;;;;5089477;28;20219;-50
2022/08/06 08:00:13;;;;;;;5.53;1.05;;;22.90;99.90;;;;;;5075843;28;20244;-51
2022/08/06 08:06:17;;;;;;;2.72;1.13;;;22.90;99.90;;;;;;5089568;28;20291;-51
2022/08/06 08:08:30;;;;;;;1.73;0.80;;;23.30;99.90;;;;;;5089056;28;20200;-51
2022/08/06 08:11:01;;;;;;;3.17;1.00;;;23.10;99.90;;;;;;5089259;28;20212;-50
2022/08/06 08:13:32;;;;;;;2.30;0.88;;;22.70;99.90;;;;;;5089288;28;20208;-50
2022/08/06 08:16:15;;;;;;;2.10;1.02;;;22.10;99.90;;;;;;5089396;28;20208;-53
2022/08/06 08:18:54;;;;;;;2.45;1.00;;;21.90;99.90;;;;;;5089372;28;20224;-53
2022/08/06 08:21:24;;;;;;;3.33;1.30;;;21.80;99.90;;;;;;5089741;28;20212;-53
2022/08/06 08:23:54;;;;;;;1.92;1.00;;;21.90;99.90;;;;;;5088936;28;20420;-53
2022/08/06 08:26:23;;;;;;;3.67;1.20;;;21.80;99.90;;;;;;5089320;28;20223;-53
2022/08/06 08:28:52;;;;;;;2.72;0.88;;;21.70;99.90;;;;;;5088855;28;20286;-53
2022/08/06 08:31:20;;;;;;;3.70;1.00;;;21.80;99.90;;;;;;5089218;28;20242;-52
2022/08/06 08:33:53;;;;;;;2.75;1.05;;;21.90;99.90;;;;;;5088359;28;20220;-52
2022/08/06 08:36:23;;;;;;;2.78;1.05;;;22.10;99.90;;;;;;5089934;28;20223;-53
2022/08/06 08:38:59;;;;;;;2.78;1.05;;;22.00;99.90;;;;;;5093366;28;20242;-53
2022/08/06 08:41:35;;;;;;;4.75;1.17;;;21.60;99.90;;;;;;5093138;28;20203;-53
2022/08/06 08:44:21;;;;;;;2.17;1.10;;;21.50;99.90;;;;;;5093160;28;20803;-53
2022/08/06 08:46:58;;;;;;;2.78;1.23;;;21.50;99.90;;;;;;5093500;28;20199;-53
2022/08/06 08:49:35;;;;;;;1.67;0.77;;;22.00;99.90;;;;;;5093222;28;20234;-53
2022/08/06 08:52:08;;;;;;;1.38;0.63;;;22.20;99.90;;;;;;5093341;28;20231;-52
2022/08/06 08:54:42;;;;;;;12.43;1.95;;;22.30;99.40;;;;;;5091994;28;20207;-53
2022/08/06 08:57:11;;;;;;;1.48;0.90;;;22.20;99.90;;;;;;5092648;28;20775;-53
2022/08/06 09:00:01;;;;;;;1.75;0.88;;;22.30;99.70;;;;;;5078749;28;20755;-52
2022/08/06 09:02:38;;;;;;;227.82;22.02;;;22.20;99.70;;;;;;5092649;28;20218;-53
2022/08/06 09:05:16;;;;;;;8.77;2.47;;;22.30;99.10;;;;;;5092995;28;20692;-53
2022/08/06 09:07:45;;;;;;;1.63;0.77;;;22.30;99.60;;;;;;5092959;28;20293;-53
2022/08/06 09:10:30;;;;;;;3.58;1.15;;;22.10;99.90;;;;;;5106494;28;20930;-53
2022/08/06 09:13:03;;;;;;;2.80;1.13;;;22.40;98.60;;;;;;5112913;28;20199;-53
2022/08/06 09:15:51;;;;;;;3.03;0.70;;;21.90;96.80;;;;;;5107168;28;20208;-53
2022/08/06 09:18:23;;;;;;;3.90;1.40;;;21.90;96.10;;;;;;5103869;28;20211;-53
2022/08/06 09:20:55;;;;;;;2.60;1.10;;;22.00;98.70;;;;;;5099814;28;20212;-53
2022/08/06 09:23:25;;;;;;;2.85;0.90;;;22.30;99.90;;;;;;5112618;28;20235;-54
2022/08/06 09:26:09;;;;;;;2.97;1.10;;;22.50;97.80;;;;;;5113256;28;20290;-53
2022/08/06 09:28:40;;;;;;;1.92;1.05;;;22.40;98.90;;;;;;5101434;28;20227;-52
2022/08/06 09:31:14;;;;;;;2.53;1.20;;;22.20;97.10;;;;;;5112205;28;20250;-52
2022/08/06 09:33:58;;;;;;;10.88;2.03;;;21.90;96.20;;;;;;5101349;28;20231;-53
2022/08/06 09:36:49;;;;;;;3.83;1.10;;;21.90;97.50;;;;;;5112428;28;20283;-53
2022/08/06 09:39:32;;;;;;;1.50;0.90;;;22.30;98.50;;;;;;5112761;28;20215;-52
2022/08/06 09:42:38;;;;;;;11.23;2.65;;;22.60;97.50;;;;;;5112369;28;20290;-53
2022/08/06 09:45:08;;;;;;;2.95;0.95;;;22.60;98.10;;;;;;5112675;28;20671;-53
2022/08/06 09:47:43;;;;;;;4.00;0.80;;;22.50;97.00;;;;;;5112096;28;20199;-52
2022/08/06 09:50:37;;;;;;;1.55;0.90;;;22.60;96.70;;;;;;5111337;28;20238;-53
2022/08/06 09:53:10;;;;;;;3.03;1.17;;;22.80;96.00;;;;;;5108220;28;20608;-53
2022/08/06 09:55:42;;;;;;;2.65;0.50;;;22.70;95.60;;;;;;5099229;28;20200;-50
2022/08/06 09:58:12;;;;;;;3.00;0.95;;;22.70;94.60;;;;;;5104630;28;20225;-53
2022/08/06 10:00:41;;;;;;;2.03;1.00;;;22.70;94.50;;;;;;5081691;28;20228;-52
2022/08/06 10:03:18;;;;;;;2.17;1.10;;;22.80;95.20;;;;;;5091378;28;20646;-51
2022/08/06 10:06:08;;;;;;;1.55;0.95;;;22.80;94.70;;;;;;5092139;28;20295;-52
2022/08/06 10:08:41;;;;;;;2.28;1.00;;;23.00;94.80;;;;;;5091044;28;20764;-53
2022/08/06 10:11:10;;;;;;;1.05;0.80;;;22.80;96.10;;;;;;5091637;28;20204;-53
2022/08/06 10:13:47;;;;;;;2.78;1.15;;;22.70;95.90;;;;;;5091764;28;20222;-52
2022/08/06 10:16:18;;;;;;;2.22;0.95;;;22.50;95.80;;;;;;5091491;28;20212;-52
2022/08/06 10:18:49;;;;;;;2.25;0.85;;;22.60;95.30;;;;;;5091409;28;20761;-53
2022/08/06 10:21:28;;;;;;;1.58;0.93;;;22.70;95.80;;;;;;5091113;28;20228;-52
2022/08/06 10:24:11;;;;;;;3.53;0.85;;;22.90;94.30;;;;;;5091520;28;20200;-52
2022/08/06 10:26:42;;;;;;;2.20;0.85;;;22.90;95.10;;;;;;5089660;28;20205;-52
2022/08/06 10:29:16;;;;;;;2.92;0.90;;;22.90;94.80;;;;;;5091605;28;20216;-50
2022/08/06 10:31:45;;;;;;;2.25;0.95;;;22.60;95.70;;;;;;5089623;28;20204;-50
2022/08/06 10:34:27;;;;;;;1.77;0.70;;;22.60;96.40;;;;;;5088145;28;20239;-53
2022/08/06 10:37:03;;;;;;;5.10;0.98;;;22.70;97.30;;;;;;5091325;28;20234;-48
2022/08/06 10:39:55;;;;;;;1.58;0.88;;;22.70;97.10;;;;;;5091035;28;20727;-50
2022/08/06 10:42:37;;;;;;;1.90;0.82;;;22.80;95.70;;;;;;5090846;28;20604;-50
2022/08/06 10:45:11;;;;;;;1.20;0.82;;;22.40;96.50;;;;;;5111347;28;20215;-50
2022/08/06 10:47:46;;;;;;;1.85;0.80;;;22.30;96.50;;;;;;5110798;28;20195;-50
2022/08/06 10:50:34;;;;;;;2.63;0.88;;;22.40;95.20;;;;;;5110692;28;20306;-52
2022/08/06 10:53:19;;;;;;;2.22;0.77;;;22.60;95.40;;;;;;5108792;28;20207;-54
2022/08/06 10:56:09;;;;;;;1.42;0.95;;;22.90;94.10;;;;;;5098524;28;20299;-53
2022/08/06 10:58:39;;;;;;;4.10;1.08;;;23.20;93.90;;;;;;5095657;28;20231;-53
2022/08/06 11:01:20;;;;;;;1.83;1.00;;;23.10;93.50;;;;;;5083575;28;20212;-50
2022/08/06 11:04:03;;;;;;;3.15;0.73;;;22.90;92.90;;;;;;5089911;28;20208;-51
2022/08/06 11:06:47;;;;;;;1.17;0.80;;;22.90;94.20;;;;;;5089970;28;20215;-51
2022/08/06 11:09:44;;;;;;;3.22;0.90;;;22.90;95.10;;;;;;5090131;28;20224;-51
2022/08/06 11:12:41;;;;;;;1.30;0.95;;;22.80;95.10;;;;;;5079193;28;20208;-54
2022/08/06 11:15:18;;;;;;;1.42;0.80;;;23.10;96.20;;;;;;5090888;28;20200;-53
2022/08/06 11:17:53;;;;;;;2.03;0.90;;;22.80;95.30;;;;;;5088883;28;20228;-53
2022/08/06 11:20:41;;;;;;;0.73;0.70;;;22.60;93.50;;;;;;5090454;28;20224;-53
2022/08/06 11:23:28;;;;;;;1.42;0.70;;;22.70;94.90;;;;;;5090668;28;20235;-53
2022/08/06 11:26:34;;;;;;;1.48;0.70;;;23.00;92.90;;;;;;5081951;28;20295;-53
2022/08/06 11:29:07;;;;;;;2.13;0.80;;;23.00;92.30;;;;;;5090023;28;20310;-53
2022/08/06 11:31:37;;;;;;;2.03;0.70;;;22.80;92.20;;;;;;5089940;28;20786;-53
2022/08/06 11:34:14;;;;;;;2.55;1.13;;;22.90;92.40;;;;;;5082852;28;20201;-53
2022/08/06 11:36:56;;;;;;;2.17;0.70;;;22.80;94.80;;;;;;5088324;28;20265;-52
2022/08/06 11:39:28;;;;;;;1.17;0.85;;;22.60;92.90;;;;;;5085546;28;20227;-53
2022/08/06 11:42:44;;;;;;;1.33;0.60;;;22.40;92.90;;;;;;5089483;28;20208;-53
2022/08/06 11:45:18;;;;;;;2.42;0.80;;;22.20;92.00;;;;;;5089043;28;20211;-52
2022/08/06 11:48:07;;;;;;;1.80;1.02;;;22.00;91.80;;;;;;5089652;28;20283;-53
2022/08/06 11:50:56;;;;;;;4.03;1.00;;;22.30;91.70;;;;;;5089298;28;20244;-53
2022/08/06 11:53:38;;;;;;;4.47;1.10;;;22.60;93.80;;;;;;5089736;28;20236;-53
2022/08/06 11:56:20;;;;;;;1.65;0.80;;;23.00;93.30;;;;;;5089459;28;20215;-53
2022/08/06 11:59:13;;;;;;;1.33;0.75;;;23.10;92.90;;;;;;5079797;28;20725;-53
2022/08/06 12:01:48;;;;;;;2.55;0.90;;;23.00;93.10;;;;;;5087315;28;20210;-53
2022/08/06 12:04:44;;;;;;;1.45;0.70;;;22.60;91.90;;;;;;5088789;28;20703;-52
2022/08/06 12:07:18;;;;;;;2.30;0.75;;;22.20;92.60;;;;;;5076961;28;20237;-53
2022/08/06 12:10:00;;;;;;;7.03;1.00;;;22.00;92.90;;;;;;5089976;28;20228;-52
2022/08/06 12:12:36;;;;;;;1.75;0.70;;;22.00;92.70;;;;;;5089122;28;20316;-52
2022/08/06 12:15:37;;;;;;;1.17;0.70;;;22.10;91.30;;;;;;5089726;28;20211;-53
2022/08/06 12:18:25;;;;;;;2.45;1.08;;;22.30;92.80;;;;;;5088317;28;20307;-53
2022/08/06 12:20:59;;;;;;;1.50;0.60;;;22.40;92.90;;;;;;5089955;28;20262;-52
2022/08/06 12:23:29;;;;;;;1.42;0.93;;;22.20;92.80;;;;;;5088662;28;20206;-52
2022/08/06 12:26:17;;;;;;;2.05;0.65;;;21.80;92.90;;;;;;5090470;28;20299;-52
2022/08/06 12:29:05;;;;;;;1.20;0.90;;;22.10;94.10;;;;;;5089473;28;20215;-53
2022/08/06 12:31:35;;;;;;;1.45;0.80;;;22.30;93.20;;;;;;5088787;28;20571;-53
2022/08/06 12:34:29;;;;;;;3.00;0.90;;;22.40;93.00;;;;;;5084849;28;20214;-53
2022/08/06 12:36:59;;;;;;;1.10;0.75;;;22.30;92.90;;;;;;5089272;28;20204;-52
2022/08/06 12:42:24;;;;;;;0.77;0.60;;;22.50;92.30;;;;;;5087800;28;20208;-53
2022/08/06 12:45:12;;;;;;;2.60;0.70;;;22.70;92.20;;;;;;5089340;28;20208;-53
2022/08/06 12:48:02;;;;;;;0.98;0.68;;;22.70;92.80;;;;;;5080811;28;20209;-53
2022/08/06 12:50:40;;;;;;;1.35;0.77;;;22.70;92.10;;;;;;5082600;28;20216;-53
2022/08/06 12:53:11;;;;;;;0.77;0.65;;;22.60;90.70;;;;;;5087799;28;20270;-53
2022/08/06 12:55:45;;;;;;;1.77;0.82;;;22.40;91.20;;;;;;5088603;28;20215;-53
2022/08/06 12:58:27;;;;;;;1.13;0.82;;;22.30;91.50;;;;;;5082565;28;20778;-53
2022/08/06 13:01:13;;;;;;;1.58;0.90;;;22.40;91.20;;;;;;5082277;28;20208;-53
2022/08/06 13:04:05;;;;;;;1.63;0.70;;;22.50;91.00;;;;;;5088517;28;20253;-53
2022/08/06 13:06:38;;;;;;;1.52;0.70;;;22.50;91.20;;;;;;5088727;28;20208;-53
2022/08/06 13:09:08;;;;;;;1.63;0.80;;;22.60;90.90;;;;;;5088257;28;20224;-53
2022/08/06 13:11:38;;;;;;;2.28;0.80;;;22.60;91.40;;;;;;5088729;28;20212;-53
2022/08/06 13:14:14;;;;;;;1.42;0.65;;;22.40;92.20;;;;;;5088071;28;20670;-53
2022/08/06 13:16:47;;;;;;;1.88;0.70;;;22.20;91.00;;;;;;5088254;28;20627;-53
2022/08/06 13:19:24;;;;;;;2.92;0.88;;;22.00;92.00;;;;;;5086725;28;20236;-53
2022/08/06 13:22:01;;;;;;;3.05;1.00;;;21.80;91.10;;;;;;5088903;28;20208;-53
2022/08/06 13:24:32;;;;;;;1.75;0.70;;;21.70;92.20;;;;;;5090844;28;20196;-53
2022/08/06 13:27:04;;;;;;;1.23;0.80;;;21.80;91.80;;;;;;5093019;28;20300;-53
2022/08/06 13:29:35;;;;;;;2.05;1.00;;;22.00;91.50;;;;;;5100465;28;20700;-53
2022/08/06 13:32:26;;;;;;;0.70;0.50;;;22.10;88.90;;;;;;5112011;28;20238;-53
2022/08/06 13:35:02;;;;;;;1.20;0.95;;;22.10;90.00;;;;;;5091167;28;20208;-52
2022/08/06 13:37:46;;;;;;;0.85;0.68;;;22.00;86.90;;;;;;5091895;28;20207;-53
2022/08/06 13:40:43;;;;;;;1.17;0.90;;;22.00;87.50;;;;;;5090764;28;20281;-53
2022/08/06 13:43:20;;;;;;;1.73;0.82;;;21.90;87.20;;;;;;5091590;28;20240;-52
2022/08/06 13:46:10;;;;;;;0.90;0.60;;;21.70;90.10;;;;;;5090393;28;20212;-53
2022/08/06 13:48:45;;;;;;;3.63;1.17;;;21.80;90.90;;;;;;5092007;28;20227;-52
2022/08/06 13:51:14;;;;;;;1.27;0.60;;;22.00;91.20;;;;;;5084697;28;20237;-53
2022/08/06 13:53:56;;;;;;;1.35;0.85;;;22.00;89.90;;;;;;5089578;28;20257;-53